sensor_id;sensor_type;location;lat;lon;timestamp;temperature;humidity
4425;DHT22;2225;53.568;13.266;2022-09-13T00:01:25;18.70;91.10
4425;DHT22;2225;53.568;13.266;2022-09-13T00:03:52;18.80;91.10
4425;DHT22;2225;53.568;13.266;2022-09-13T00:06:20;18.80;91.00
4425;DHT22;2225;53.568;13.266;2022-09-13T00:08:48;18.80;91.00
4425;DHT22;2225;53.568;13.266;2022-09-13T00:11:19;18.80;90.90
4425;DHT22;2225;53.568;13.266;2022-09-13T00:13:48;18.90;90.90
4425;DHT22;2225;53.568;13.266;2022-09-13T00:16:16;18.90;90.90
4425;DHT22;2225;53.568;13.266;2022-09-13T00:18:45;18.90;90.90
4425;DHT22;2225;53.568;13.266;2022-09-13T00:21:15;18.90;90.90
4425;DHT22;2225;53.568;13.266;2022-09-13T00:23:48;18.90;90.90
4425;DHT22;2225;53.568;13.266;2022-09-13T00:26:19;18.90;90.90
4425;DHT22;2225;53.568;13.266;2022-09-13T00:28:49;18.90;90.90
4425;DHT22;2225;53.568;13.266;2022-09-13T00:31:18;18.90;90.80
4425;DHT22;2225;53.568;13.266;2022-09-13T00:33:46;18.90;90.70
4425;DHT22;2225;53.568;13.266;2022-09-13T00:36:13;18.90;90.70
4425;DHT22;2225;53.568;13.266;2022-09-13T00:38:41;18.90;90.70
4425;DHT22;2225;53.568;13.266;2022-09-13T00:41:15;18.90;90.70
4425;DHT22;2225;53.568;13.266;2022-09-13T00:43:46;18.90;90.70
4425;DHT22;2225;53.568;13.266;2022-09-13T00:49:19;19.00;90.70
4425;DHT22;2225;53.568;13.266;2022-09-13T00:51:55;19.00;90.70
4425;DHT22;2225;53.568;13.266;2022-09-13T00:54:28;19.00;90.70
4425;DHT22;2225;53.568;13.266;2022-09-13T00:57:03;19.00;90.60
4425;DHT22;2225;53.568;13.266;2022-09-13T00:59:41;18.90;90.60
4425;DHT22;2225;53.568;13.266;2022-09-13T01:02:11;18.90;90.60
4425;DHT22;2225;53.568;13.266;2022-09-13T01:04:39;18.90;90.60
4425;DHT22;2225;53.568;13.266;2022-09-13T01:07:09;18.80;90.60
4425;DHT22;2225;53.568;13.266;2022-09-13T01:09:39;18.80;90.60
4425;DHT22;2225;53.568;13.266;2022-09-13T01:14:58;18.80;90.80
4425;DHT22;2225;53.568;13.266;2022-09-13T01:17:27;18.80;90.70
4425;DHT22;2225;53.568;13.266;2022-09-13T01:19:56;18.80;90.70
4425;DHT22;2225;53.568;13.266;2022-09-13T01:22:50;18.80;90.70
4425;DHT22;2225;53.568;13.266;2022-09-13T01:25:42;18.80;90.60
4425;DHT22;2225;53.568;13.266;2022-09-13T01:28:46;18.80;90.60
4425;DHT22;2225;53.568;13.266;2022-09-13T01:31:44;18.80;90.60
4425;DHT22;2225;53.568;13.266;2022-09-13T01:34:41;18.80;90.60
4425;DHT22;2225;53.568;13.266;2022-09-13T01:40:16;18.80;90.60
4425;DHT22;2225;53.568;13.266;2022-09-13T01:43:06;18.70;90.60
4425;DHT22;2225;53.568;13.266;2022-09-13T01:45:47;18.70;90.80
4425;DHT22;2225;53.568;13.266;2022-09-13T01:48:41;18.70;90.70
4425;DHT22;2225;53.568;13.266;2022-09-13T01:51:56;18.70;90.80
4425;DHT22;2225;53.568;13.266;2022-09-13T01:54:52;18.70;90.80
4425;DHT22;2225;53.568;13.266;2022-09-13T01:57:31;18.70;90.80
4425;DHT22;2225;53.568;13.266;2022-09-13T02:00:12;18.80;90.80
4425;DHT22;2225;53.568;13.266;2022-09-13T02:02:52;18.80;91.10
4425;DHT22;2225;53.568;13.266;2022-09-13T02:06:05;18.80;90.80
4425;DHT22;2225;53.568;13.266;2022-09-13T02:08:50;18.80;90.80
4425;DHT22;2225;53.568;13.266;2022-09-13T02:11:21;18.80;90.70
4425;DHT22;2225;53.568;13.266;2022-09-13T02:14:03;18.80;90.70
4425;DHT22;2225;53.568;13.266;2022-09-13T02:16:37;18.90;90.80
4425;DHT22;2225;53.568;13.266;2022-09-13T02:19:16;18.90;90.80
4425;DHT22;2225;53.568;13.266;2022-09-13T02:21:53;18.90;90.70
4425;DHT22;2225;53.568;13.266;2022-09-13T02:24:25;18.90;90.70
4425;DHT22;2225;53.568;13.266;2022-09-13T02:26:58;18.90;90.70
4425;DHT22;2225;53.568;13.266;2022-09-13T02:29:30;18.90;90.60
4425;DHT22;2225;53.568;13.266;2022-09-13T02:32:03;19.00;90.70
4425;DHT22;2225;53.568;13.266;2022-09-13T02:34:39;19.00;91.00
4425;DHT22;2225;53.568;13.266;2022-09-13T02:37:08;19.00;90.60
4425;DHT22;2225;53.568;13.266;2022-09-13T02:39:43;19.00;90.60
4425;DHT22;2225;53.568;13.266;2022-09-13T02:42:16;19.00;90.50
4425;DHT22;2225;53.568;13.266;2022-09-13T02:44:51;19.00;90.40
4425;DHT22;2225;53.568;13.266;2022-09-13T02:47:43;19.00;90.30
4425;DHT22;2225;53.568;13.266;2022-09-13T02:50:57;19.00;90.20
4425;DHT22;2225;53.568;13.266;2022-09-13T02:53:34;19.10;90.20
4425;DHT22;2225;53.568;13.266;2022-09-13T02:59:00;19.10;90.20
4425;DHT22;2225;53.568;13.266;2022-09-13T03:01:38;19.10;90.20
4425;DHT22;2225;53.568;13.266;2022-09-13T03:04:06;19.10;90.20
4425;DHT22;2225;53.568;13.266;2022-09-13T03:06:33;19.10;90.20
4425;DHT22;2225;53.568;13.266;2022-09-13T03:09:02;19.10;90.10
4425;DHT22;2225;53.568;13.266;2022-09-13T03:11:46;19.10;90.20
4425;DHT22;2225;53.568;13.266;2022-09-13T03:17:24;19.10;90.10
4425;DHT22;2225;53.568;13.266;2022-09-13T03:20:23;19.10;90.10
4425;DHT22;2225;53.568;13.266;2022-09-13T03:23:11;19.10;90.10
4425;DHT22;2225;53.568;13.266;2022-09-13T03:34:47;19.20;90.00
4425;DHT22;2225;53.568;13.266;2022-09-13T03:43:40;19.20;90.00
4425;DHT22;2225;53.568;13.266;2022-09-13T03:46:16;19.20;90.20
4425;DHT22;2225;53.568;13.266;2022-09-13T03:48:48;19.20;90.40
4425;DHT22;2225;53.568;13.266;2022-09-13T03:51:15;19.20;90.40
4425;DHT22;2225;53.568;13.266;2022-09-13T03:53:49;19.20;90.50
4425;DHT22;2225;53.568;13.266;2022-09-13T03:56:21;19.20;90.70
4425;DHT22;2225;53.568;13.266;2022-09-13T03:58:49;19.10;90.70
4425;DHT22;2225;53.568;13.266;2022-09-13T04:01:19;19.20;90.70
4425;DHT22;2225;53.568;13.266;2022-09-13T04:03:47;19.20;90.80
4425;DHT22;2225;53.568;13.266;2022-09-13T04:06:18;19.20;90.80
4425;DHT22;2225;53.568;13.266;2022-09-13T04:08:45;19.20;90.90
4425;DHT22;2225;53.568;13.266;2022-09-13T04:11:13;19.20;91.00
4425;DHT22;2225;53.568;13.266;2022-09-13T04:13:39;19.10;91.00
4425;DHT22;2225;53.568;13.266;2022-09-13T04:16:07;19.10;91.10
4425;DHT22;2225;53.568;13.266;2022-09-13T04:18:34;19.10;91.20
4425;DHT22;2225;53.568;13.266;2022-09-13T04:21:02;19.10;91.20
4425;DHT22;2225;53.568;13.266;2022-09-13T04:23:30;19.10;91.30
4425;DHT22;2225;53.568;13.266;2022-09-13T04:26:02;19.10;91.30
4425;DHT22;2225;53.568;13.266;2022-09-13T04:28:29;19.00;91.50
4425;DHT22;2225;53.568;13.266;2022-09-13T04:30:56;19.00;91.50
4425;DHT22;2225;53.568;13.266;2022-09-13T04:33:23;19.00;91.50
4425;DHT22;2225;53.568;13.266;2022-09-13T04:35:56;19.00;91.60
4425;DHT22;2225;53.568;13.266;2022-09-13T04:38:25;19.00;91.60
4425;DHT22;2225;53.568;13.266;2022-09-13T04:40:53;19.00;91.60
4425;DHT22;2225;53.568;13.266;2022-09-13T04:43:22;19.00;91.80
4425;DHT22;2225;53.568;13.266;2022-09-13T04:45:49;18.90;91.80
4425;DHT22;2225;53.568;13.266;2022-09-13T04:48:16;18.90;91.90
4425;DHT22;2225;53.568;13.266;2022-09-13T04:50:43;18.90;92.10
4425;DHT22;2225;53.568;13.266;2022-09-13T04:53:11;18.90;92.20
4425;DHT22;2225;53.568;13.266;2022-09-13T04:55:37;18.90;92.20
4425;DHT22;2225;53.568;13.266;2022-09-13T04:58:05;18.90;92.20
4425;DHT22;2225;53.568;13.266;2022-09-13T05:00:32;18.90;92.20
4425;DHT22;2225;53.568;13.266;2022-09-13T05:02:59;18.90;92.30
4425;DHT22;2225;53.568;13.266;2022-09-13T05:05:26;18.90;92.30
4425;DHT22;2225;53.568;13.266;2022-09-13T05:07:54;18.90;92.30
4425;DHT22;2225;53.568;13.266;2022-09-13T05:10:21;18.90;92.40
4425;DHT22;2225;53.568;13.266;2022-09-13T05:12:48;18.90;92.30
4425;DHT22;2225;53.568;13.266;2022-09-13T05:15:15;18.80;92.30
4425;DHT22;2225;53.568;13.266;2022-09-13T05:17:42;18.90;92.30
4425;DHT22;2225;53.568;13.266;2022-09-13T05:20:09;18.90;92.30
4425;DHT22;2225;53.568;13.266;2022-09-13T05:22:36;18.90;92.40
4425;DHT22;2225;53.568;13.266;2022-09-13T05:25:03;18.90;92.30
4425;DHT22;2225;53.568;13.266;2022-09-13T05:27:31;18.90;92.40
4425;DHT22;2225;53.568;13.266;2022-09-13T05:29:57;18.90;92.40
4425;DHT22;2225;53.568;13.266;2022-09-13T05:32:24;18.90;92.50
4425;DHT22;2225;53.568;13.266;2022-09-13T05:34:51;18.90;92.40
4425;DHT22;2225;53.568;13.266;2022-09-13T05:37:18;18.90;92.50
4425;DHT22;2225;53.568;13.266;2022-09-13T05:39:45;18.90;92.40
4425;DHT22;2225;53.568;13.266;2022-09-13T05:42:32;18.90;92.50
4425;DHT22;2225;53.568;13.266;2022-09-13T05:44:59;18.90;92.40
4425;DHT22;2225;53.568;13.266;2022-09-13T05:47:26;18.90;92.40
4425;DHT22;2225;53.568;13.266;2022-09-13T05:49:53;18.90;92.40
4425;DHT22;2225;53.568;13.266;2022-09-13T05:52:36;18.90;92.50
4425;DHT22;2225;53.568;13.266;2022-09-13T05:55:03;18.90;92.50
4425;DHT22;2225;53.568;13.266;2022-09-13T05:57:30;18.90;92.60
4425;DHT22;2225;53.568;13.266;2022-09-13T05:59:57;19.00;92.70
4425;DHT22;2225;53.568;13.266;2022-09-13T06:02:24;19.00;92.70
4425;DHT22;2225;53.568;13.266;2022-09-13T06:04:51;19.00;92.90
4425;DHT22;2225;53.568;13.266;2022-09-13T06:07:18;19.00;92.90
4425;DHT22;2225;53.568;13.266;2022-09-13T06:09:45;19.10;93.00
4425;DHT22;2225;53.568;13.266;2022-09-13T06:12:12;19.20;93.10
4425;DHT22;2225;53.568;13.266;2022-09-13T06:14:38;19.20;93.20
4425;DHT22;2225;53.568;13.266;2022-09-13T06:17:05;19.30;93.20
4425;DHT22;2225;53.568;13.266;2022-09-13T06:19:32;19.40;93.60
4425;DHT22;2225;53.568;13.266;2022-09-13T06:21:59;19.40;93.10
4425;DHT22;2225;53.568;13.266;2022-09-13T06:24:26;19.40;92.90
4425;DHT22;2225;53.568;13.266;2022-09-13T06:26:53;19.50;92.70
4425;DHT22;2225;53.568;13.266;2022-09-13T06:29:20;19.50;92.70
4425;DHT22;2225;53.568;13.266;2022-09-13T06:31:47;19.50;92.60
4425;DHT22;2225;53.568;13.266;2022-09-13T06:34:14;19.50;92.60
4425;DHT22;2225;53.568;13.266;2022-09-13T06:36:42;19.50;92.50
4425;DHT22;2225;53.568;13.266;2022-09-13T06:39:09;19.50;92.80
4425;DHT22;2225;53.568;13.266;2022-09-13T06:41:36;19.50;92.40
4425;DHT22;2225;53.568;13.266;2022-09-13T06:44:04;19.50;92.40
4425;DHT22;2225;53.568;13.266;2022-09-13T06:46:33;19.60;92.50
4425;DHT22;2225;53.568;13.266;2022-09-13T06:49:02;19.60;92.50
4425;DHT22;2225;53.568;13.266;2022-09-13T06:51:30;19.60;92.50
4425;DHT22;2225;53.568;13.266;2022-09-13T06:53:58;19.70;92.50
4425;DHT22;2225;53.568;13.266;2022-09-13T06:56:29;19.70;92.50
4425;DHT22;2225;53.568;13.266;2022-09-13T06:59:05;19.80;92.60
4425;DHT22;2225;53.568;13.266;2022-09-13T07:01:39;19.80;92.70
4425;DHT22;2225;53.568;13.266;2022-09-13T07:04:12;19.80;92.50
4425;DHT22;2225;53.568;13.266;2022-09-13T07:06:43;19.80;92.30
4425;DHT22;2225;53.568;13.266;2022-09-13T07:09:18;19.80;92.40
4425;DHT22;2225;53.568;13.266;2022-09-13T07:11:48;19.80;92.40
4425;DHT22;2225;53.568;13.266;2022-09-13T07:14:21;19.80;92.40
4425;DHT22;2225;53.568;13.266;2022-09-13T07:16:50;19.80;92.50
4425;DHT22;2225;53.568;13.266;2022-09-13T07:19:22;19.80;92.50
4425;DHT22;2225;53.568;13.266;2022-09-13T07:21:55;19.80;92.60
4425;DHT22;2225;53.568;13.266;2022-09-13T07:24:23;19.80;92.50
4425;DHT22;2225;53.568;13.266;2022-09-13T07:26:50;19.80;92.50
4425;DHT22;2225;53.568;13.266;2022-09-13T07:29:19;19.80;92.40
4425;DHT22;2225;53.568;13.266;2022-09-13T07:31:50;19.80;92.60
4425;DHT22;2225;53.568;13.266;2022-09-13T07:34:20;19.80;92.60
4425;DHT22;2225;53.568;13.266;2022-09-13T07:36:48;19.80;92.70
4425;DHT22;2225;53.568;13.266;2022-09-13T07:39:16;19.80;92.70
4425;DHT22;2225;53.568;13.266;2022-09-13T07:41:47;19.90;92.60
4425;DHT22;2225;53.568;13.266;2022-09-13T07:44:14;19.90;92.60
4425;DHT22;2225;53.568;13.266;2022-09-13T07:46:41;19.90;92.70
4425;DHT22;2225;53.568;13.266;2022-09-13T07:49:12;19.90;92.80
4425;DHT22;2225;53.568;13.266;2022-09-13T07:51:42;20.00;92.90
4425;DHT22;2225;53.568;13.266;2022-09-13T07:54:12;20.00;92.80
4425;DHT22;2225;53.568;13.266;2022-09-13T07:56:40;20.10;92.80
4425;DHT22;2225;53.568;13.266;2022-09-13T07:59:14;20.10;92.80
4425;DHT22;2225;53.568;13.266;2022-09-13T08:01:44;20.10;92.80
4425;DHT22;2225;53.568;13.266;2022-09-13T08:04:15;20.10;92.70
4425;DHT22;2225;53.568;13.266;2022-09-13T08:06:44;20.10;92.80
4425;DHT22;2225;53.568;13.266;2022-09-13T08:09:12;20.10;92.70
4425;DHT22;2225;53.568;13.266;2022-09-13T08:11:45;20.10;92.90
4425;DHT22;2225;53.568;13.266;2022-09-13T08:14:15;20.10;93.10
4425;DHT22;2225;53.568;13.266;2022-09-13T08:16:43;20.20;93.20
4425;DHT22;2225;53.568;13.266;2022-09-13T08:19:16;20.20;93.20
4425;DHT22;2225;53.568;13.266;2022-09-13T08:21:44;20.30;93.30
4425;DHT22;2225;53.568;13.266;2022-09-13T08:24:17;20.20;93.10
4425;DHT22;2225;53.568;13.266;2022-09-13T08:26:45;20.20;93.20
4425;DHT22;2225;53.568;13.266;2022-09-13T08:29:14;20.30;93.30
4425;DHT22;2225;53.568;13.266;2022-09-13T08:31:41;20.30;93.30
4425;DHT22;2225;53.568;13.266;2022-09-13T08:34:10;20.30;93.40
4425;DHT22;2225;53.568;13.266;2022-09-13T08:36:41;20.30;93.40
4425;DHT22;2225;53.568;13.266;2022-09-13T08:39:09;20.40;93.50
4425;DHT22;2225;53.568;13.266;2022-09-13T08:44:19;20.50;93.60
4425;DHT22;2225;53.568;13.266;2022-09-13T08:47:02;20.50;93.60
4425;DHT22;2225;53.568;13.266;2022-09-13T08:49:43;20.60;93.60
4425;DHT22;2225;53.568;13.266;2022-09-13T08:52:23;20.60;93.60
4425;DHT22;2225;53.568;13.266;2022-09-13T08:54:51;20.60;93.60
4425;DHT22;2225;53.568;13.266;2022-09-13T08:57:25;20.70;93.60
4425;DHT22;2225;53.568;13.266;2022-09-13T09:00:13;20.70;93.60
4425;DHT22;2225;53.568;13.266;2022-09-13T09:03:09;20.70;93.50
4425;DHT22;2225;53.568;13.266;2022-09-13T09:05:45;20.70;93.60
4425;DHT22;2225;53.568;13.266;2022-09-13T09:08:27;20.70;93.60
4425;DHT22;2225;53.568;13.266;2022-09-13T09:10:58;20.70;93.70
4425;DHT22;2225;53.568;13.266;2022-09-13T09:13:33;20.80;93.70
4425;DHT22;2225;53.568;13.266;2022-09-13T09:16:40;20.80;93.80
4425;DHT22;2225;53.568;13.266;2022-09-13T09:20:15;20.80;93.80
4425;DHT22;2225;53.568;13.266;2022-09-13T09:22:18;20.80;93.80
4425;DHT22;2225;53.568;13.266;2022-09-13T09:24:53;20.80;93.80
4425;DHT22;2225;53.568;13.266;2022-09-13T09:27:22;20.80;93.80
4425;DHT22;2225;53.568;13.266;2022-09-13T09:29:53;20.80;93.90
4425;DHT22;2225;53.568;13.266;2022-09-13T09:35:52;20.80;94.20
4425;DHT22;2225;53.568;13.266;2022-09-13T09:38:38;20.90;94.20
4425;DHT22;2225;53.568;13.266;2022-09-13T09:41:14;21.00;94.30
4425;DHT22;2225;53.568;13.266;2022-09-13T09:43:55;21.00;94.30
4425;DHT22;2225;53.568;13.266;2022-09-13T09:46:32;21.10;94.30
4425;DHT22;2225;53.568;13.266;2022-09-13T09:49:21;21.20;94.40
4425;DHT22;2225;53.568;13.266;2022-09-13T09:52:14;21.30;94.40
4425;DHT22;2225;53.568;13.266;2022-09-13T09:54:44;21.40;94.20
4425;DHT22;2225;53.568;13.266;2022-09-13T09:57:12;21.50;94.00
4425;DHT22;2225;53.568;13.266;2022-09-13T09:59:39;21.50;93.90
4425;DHT22;2225;53.568;13.266;2022-09-13T10:02:16;21.60;93.80
4425;DHT22;2225;53.568;13.266;2022-09-13T10:04:54;21.60;93.50
4425;DHT22;2225;53.568;13.266;2022-09-13T10:07:29;21.70;93.40
4425;DHT22;2225;53.568;13.266;2022-09-13T10:10:04;21.70;93.40
4425;DHT22;2225;53.568;13.266;2022-09-13T10:12:36;21.70;93.40
4425;DHT22;2225;53.568;13.266;2022-09-13T10:15:18;21.80;93.20
4425;DHT22;2225;53.568;13.266;2022-09-13T10:18:13;21.80;93.00
4425;DHT22;2225;53.568;13.266;2022-09-13T10:21:17;21.90;93.00
4425;DHT22;2225;53.568;13.266;2022-09-13T10:23:48;21.90;92.80
4425;DHT22;2225;53.568;13.266;2022-09-13T10:26:24;22.00;92.60
4425;DHT22;2225;53.568;13.266;2022-09-13T10:31:37;22.00;92.50
4425;DHT22;2225;53.568;13.266;2022-09-13T10:37:05;22.10;92.60
4425;DHT22;2225;53.568;13.266;2022-09-13T10:42:22;22.20;92.20
4425;DHT22;2225;53.568;13.266;2022-09-13T10:44:55;22.30;92.30
4425;DHT22;2225;53.568;13.266;2022-09-13T10:47:31;22.40;92.10
4425;DHT22;2225;53.568;13.266;2022-09-13T10:50:30;22.50;92.00
4425;DHT22;2225;53.568;13.266;2022-09-13T10:52:58;22.60;91.60
4425;DHT22;2225;53.568;13.266;2022-09-13T10:55:33;22.70;91.50
4425;DHT22;2225;53.568;13.266;2022-09-13T11:03:35;22.90;89.90
4425;DHT22;2225;53.568;13.266;2022-09-13T11:09:42;23.10;90.30
4425;DHT22;2225;53.568;13.266;2022-09-13T11:12:36;23.30;90.00
4425;DHT22;2225;53.568;13.266;2022-09-13T11:15:29;23.40;89.80
4425;DHT22;2225;53.568;13.266;2022-09-13T11:27:13;23.70;86.80
4425;DHT22;2225;53.568;13.266;2022-09-13T11:30:17;23.90;87.20
4425;DHT22;2225;53.568;13.266;2022-09-13T11:33:30;24.00;84.70
4425;DHT22;2225;53.568;13.266;2022-09-13T11:36:33;24.10;83.50
4425;DHT22;2225;53.568;13.266;2022-09-13T11:42:15;24.10;83.60
4425;DHT22;2225;53.568;13.266;2022-09-13T11:56:35;24.40;83.30
4425;DHT22;2225;53.568;13.266;2022-09-13T11:59:09;24.40;83.00
4425;DHT22;2225;53.568;13.266;2022-09-13T12:02:03;24.40;82.60
4425;DHT22;2225;53.568;13.266;2022-09-13T12:05:02;24.40;82.00
4425;DHT22;2225;53.568;13.266;2022-09-13T12:08:04;24.50;81.40
4425;DHT22;2225;53.568;13.266;2022-09-13T12:13:49;24.60;81.00
4425;DHT22;2225;53.568;13.266;2022-09-13T12:16:25;24.50;80.60
4425;DHT22;2225;53.568;13.266;2022-09-13T12:21:57;24.40;81.10
4425;DHT22;2225;53.568;13.266;2022-09-13T12:24:33;24.40;82.00
4425;DHT22;2225;53.568;13.266;2022-09-13T12:27:32;24.40;82.20
4425;DHT22;2225;53.568;13.266;2022-09-13T12:30:17;24.40;82.60
4425;DHT22;2225;53.568;13.266;2022-09-13T12:32:46;24.50;83.30
4425;DHT22;2225;53.568;13.266;2022-09-13T12:35:35;24.50;83.10
4425;DHT22;2225;53.568;13.266;2022-09-13T12:38:37;24.60;82.10
4425;DHT22;2225;53.568;13.266;2022-09-13T12:44:37;24.60;81.90
4425;DHT22;2225;53.568;13.266;2022-09-13T12:47:11;24.60;80.30
4425;DHT22;2225;53.568;13.266;2022-09-13T12:53:07;24.40;79.80
4425;DHT22;2225;53.568;13.266;2022-09-13T12:56:18;24.40;78.40
4425;DHT22;2225;53.568;13.266;2022-09-13T13:01:53;24.20;79.10
4425;DHT22;2225;53.568;13.266;2022-09-13T13:04:24;24.10;80.10
4425;DHT22;2225;53.568;13.266;2022-09-13T13:07:04;24.10;80.50
4425;DHT22;2225;53.568;13.266;2022-09-13T13:14:52;23.90;80.90
4425;DHT22;2225;53.568;13.266;2022-09-13T13:18:18;23.80;80.90
4425;DHT22;2225;53.568;13.266;2022-09-13T13:20:44;23.80;81.00
4425;DHT22;2225;53.568;13.266;2022-09-13T13:23:39;23.80;80.90
4425;DHT22;2225;53.568;13.266;2022-09-13T13:29:19;23.80;81.60
4425;DHT22;2225;53.568;13.266;2022-09-13T13:34:40;23.90;77.60
4425;DHT22;2225;53.568;13.266;2022-09-13T13:39:46;24.00;78.10
4425;DHT22;2225;53.568;13.266;2022-09-13T13:42:27;24.10;77.80
4425;DHT22;2225;53.568;13.266;2022-09-13T13:45:23;24.10;77.80
4425;DHT22;2225;53.568;13.266;2022-09-13T13:48:11;24.10;76.00
4425;DHT22;2225;53.568;13.266;2022-09-13T13:53:58;24.20;77.20
4425;DHT22;2225;53.568;13.266;2022-09-13T13:56:34;24.20;78.10
4425;DHT22;2225;53.568;13.266;2022-09-13T13:59:24;24.30;77.80
4425;DHT22;2225;53.568;13.266;2022-09-13T14:01:55;24.40;75.10
4425;DHT22;2225;53.568;13.266;2022-09-13T14:11:03;24.50;73.90
4425;DHT22;2225;53.568;13.266;2022-09-13T14:20:17;24.50;73.50
4425;DHT22;2225;53.568;13.266;2022-09-13T14:22:45;24.50;74.20
4425;DHT22;2225;53.568;13.266;2022-09-13T14:25:22;24.50;74.10
4425;DHT22;2225;53.568;13.266;2022-09-13T14:27:57;24.50;74.50
4425;DHT22;2225;53.568;13.266;2022-09-13T14:30:36;24.50;74.00
4425;DHT22;2225;53.568;13.266;2022-09-13T14:33:04;24.50;74.30
4425;DHT22;2225;53.568;13.266;2022-09-13T14:35:34;24.60;74.80
4425;DHT22;2225;53.568;13.266;2022-09-13T14:38:17;24.60;74.60
4425;DHT22;2225;53.568;13.266;2022-09-13T14:40:47;24.50;72.70
4425;DHT22;2225;53.568;13.266;2022-09-13T14:43:18;24.50;71.40
4425;DHT22;2225;53.568;13.266;2022-09-13T14:45:50;24.50;72.50
4425;DHT22;2225;53.568;13.266;2022-09-13T14:48:33;24.50;71.70
4425;DHT22;2225;53.568;13.266;2022-09-13T14:51:13;24.40;72.20
4425;DHT22;2225;53.568;13.266;2022-09-13T14:53:46;24.40;71.10
4425;DHT22;2225;53.568;13.266;2022-09-13T14:56:20;24.40;71.30
4425;DHT22;2225;53.568;13.266;2022-09-13T14:58:55;24.40;71.80
4425;DHT22;2225;53.568;13.266;2022-09-13T15:01:32;24.40;71.90
4425;DHT22;2225;53.568;13.266;2022-09-13T15:04:03;24.50;71.10
4425;DHT22;2225;53.568;13.266;2022-09-13T15:06:33;24.50;71.20
4425;DHT22;2225;53.568;13.266;2022-09-13T15:11:54;24.50;70.90
4425;DHT22;2225;53.568;13.266;2022-09-13T15:14:34;24.50;71.40
4425;DHT22;2225;53.568;13.266;2022-09-13T15:17:09;24.60;71.30
4425;DHT22;2225;53.568;13.266;2022-09-13T15:22:14;24.60;71.00
4425;DHT22;2225;53.568;13.266;2022-09-13T15:24:56;24.60;70.90
4425;DHT22;2225;53.568;13.266;2022-09-13T15:27:42;24.60;70.50
4425;DHT22;2225;53.568;13.266;2022-09-13T15:33:29;24.70;71.80
4425;DHT22;2225;53.568;13.266;2022-09-13T15:41:36;24.80;70.70
4425;DHT22;2225;53.568;13.266;2022-09-13T15:44:06;24.90;71.00
4425;DHT22;2225;53.568;13.266;2022-09-13T15:46:50;24.90;71.10
4425;DHT22;2225;53.568;13.266;2022-09-13T15:49:20;24.90;70.90
4425;DHT22;2225;53.568;13.266;2022-09-13T15:51:56;24.90;71.00
4425;DHT22;2225;53.568;13.266;2022-09-13T15:54:39;24.90;70.10
4425;DHT22;2225;53.568;13.266;2022-09-13T15:57:22;24.80;70.30
4425;DHT22;2225;53.568;13.266;2022-09-13T15:59:51;24.80;70.00
4425;DHT22;2225;53.568;13.266;2022-09-13T16:02:25;24.70;70.80
4425;DHT22;2225;53.568;13.266;2022-09-13T16:04:54;24.60;71.10
4425;DHT22;2225;53.568;13.266;2022-09-13T16:07:22;24.50;71.80
4425;DHT22;2225;53.568;13.266;2022-09-13T16:09:51;24.50;72.30
4425;DHT22;2225;53.568;13.266;2022-09-13T16:12:18;24.50;72.70
4425;DHT22;2225;53.568;13.266;2022-09-13T16:14:49;24.40;72.60
4425;DHT22;2225;53.568;13.266;2022-09-13T16:17:25;24.40;72.90
4425;DHT22;2225;53.568;13.266;2022-09-13T16:19:53;24.40;73.20
4425;DHT22;2225;53.568;13.266;2022-09-13T16:22:21;24.30;73.40
4425;DHT22;2225;53.568;13.266;2022-09-13T16:24:48;24.30;73.60
4425;DHT22;2225;53.568;13.266;2022-09-13T16:27:16;24.20;73.80
4425;DHT22;2225;53.568;13.266;2022-09-13T16:29:44;24.20;74.00
4425;DHT22;2225;53.568;13.266;2022-09-13T16:32:11;24.10;74.30
4425;DHT22;2225;53.568;13.266;2022-09-13T16:34:38;24.10;74.60
4425;DHT22;2225;53.568;13.266;2022-09-13T16:37:05;24.10;74.70
4425;DHT22;2225;53.568;13.266;2022-09-13T16:39:32;24.10;74.60
4425;DHT22;2225;53.568;13.266;2022-09-13T16:41:59;24.00;74.70
4425;DHT22;2225;53.568;13.266;2022-09-13T16:44:26;24.00;74.80
4425;DHT22;2225;53.568;13.266;2022-09-13T16:46:53;23.90;74.90
4425;DHT22;2225;53.568;13.266;2022-09-13T16:49:20;23.90;76.20
4425;DHT22;2225;53.568;13.266;2022-09-13T16:51:46;23.80;75.50
4425;DHT22;2225;53.568;13.266;2022-09-13T16:54:13;23.80;75.60
4425;DHT22;2225;53.568;13.266;2022-09-13T16:56:40;23.70;75.60
4425;DHT22;2225;53.568;13.266;2022-09-13T16:59:08;23.70;75.80
4425;DHT22;2225;53.568;13.266;2022-09-13T17:01:35;23.60;76.20
4425;DHT22;2225;53.568;13.266;2022-09-13T17:04:02;23.60;76.40
4425;DHT22;2225;53.568;13.266;2022-09-13T17:06:29;23.50;76.50
4425;DHT22;2225;53.568;13.266;2022-09-13T17:08:59;23.50;76.70
4425;DHT22;2225;53.568;13.266;2022-09-13T17:11:30;23.40;76.70
4425;DHT22;2225;53.568;13.266;2022-09-13T17:14:00;23.30;76.90
4425;DHT22;2225;53.568;13.266;2022-09-13T17:16:33;23.20;77.10
4425;DHT22;2225;53.568;13.266;2022-09-13T17:19:05;23.20;77.40
4425;DHT22;2225;53.568;13.266;2022-09-13T17:21:33;23.00;77.30
4425;DHT22;2225;53.568;13.266;2022-09-13T17:24:01;23.00;77.40
4425;DHT22;2225;53.568;13.266;2022-09-13T17:26:28;22.90;77.80
4425;DHT22;2225;53.568;13.266;2022-09-13T17:28:56;22.80;78.00
4425;DHT22;2225;53.568;13.266;2022-09-13T17:31:22;22.80;78.20
4425;DHT22;2225;53.568;13.266;2022-09-13T17:33:49;22.70;78.30
4425;DHT22;2225;53.568;13.266;2022-09-13T17:36:19;22.60;78.60
4425;DHT22;2225;53.568;13.266;2022-09-13T17:38:46;22.60;78.90
4425;DHT22;2225;53.568;13.266;2022-09-13T17:41:16;22.50;79.10
4425;DHT22;2225;53.568;13.266;2022-09-13T17:43:45;22.40;79.50
4425;DHT22;2225;53.568;13.266;2022-09-13T17:46:14;22.30;79.60
4425;DHT22;2225;53.568;13.266;2022-09-13T17:48:43;22.20;79.80
4425;DHT22;2225;53.568;13.266;2022-09-13T17:51:13;22.20;80.70
4425;DHT22;2225;53.568;13.266;2022-09-13T17:53:46;22.10;80.50
4425;DHT22;2225;53.568;13.266;2022-09-13T17:56:19;22.00;80.60
4425;DHT22;2225;53.568;13.266;2022-09-13T17:58:48;21.90;81.10
4425;DHT22;2225;53.568;13.266;2022-09-13T18:01:15;21.90;81.20
4425;DHT22;2225;53.568;13.266;2022-09-13T18:03:42;21.80;81.40
4425;DHT22;2225;53.568;13.266;2022-09-13T18:06:10;21.70;81.80
4425;DHT22;2225;53.568;13.266;2022-09-13T18:08:38;21.60;82.00
4425;DHT22;2225;53.568;13.266;2022-09-13T18:11:07;21.60;82.40
4425;DHT22;2225;53.568;13.266;2022-09-13T18:13:41;21.50;82.70
4425;DHT22;2225;53.568;13.266;2022-09-13T18:16:11;21.50;82.80
4425;DHT22;2225;53.568;13.266;2022-09-13T18:18:45;21.40;83.10
4425;DHT22;2225;53.568;13.266;2022-09-13T18:21:13;21.30;83.10
4425;DHT22;2225;53.568;13.266;2022-09-13T18:23:42;21.30;83.40
4425;DHT22;2225;53.568;13.266;2022-09-13T18:26:14;21.20;83.40
4425;DHT22;2225;53.568;13.266;2022-09-13T18:28:42;21.20;83.70
4425;DHT22;2225;53.568;13.266;2022-09-13T18:31:14;21.10;83.70
4425;DHT22;2225;53.568;13.266;2022-09-13T18:33:43;21.10;84.00
4425;DHT22;2225;53.568;13.266;2022-09-13T18:36:12;21.00;84.00
4425;DHT22;2225;53.568;13.266;2022-09-13T18:38:42;21.00;84.20
4425;DHT22;2225;53.568;13.266;2022-09-13T18:41:17;20.90;84.20
4425;DHT22;2225;53.568;13.266;2022-09-13T18:43:52;20.80;84.60
4425;DHT22;2225;53.568;13.266;2022-09-13T18:46:25;20.80;84.70